createdAt,value
2022-07-27T00:02:20.741Z,68.10
2022-07-27T00:04:48.940Z,68.10
2022-07-27T00:07:17.253Z,68.20
2022-07-27T00:09:45.470Z,68.20
2022-07-27T00:12:13.615Z,68.10
2022-07-27T00:14:42.251Z,68.10
2022-07-27T00:17:11.743Z,68.10
2022-07-27T00:19:39.890Z,68.00
2022-07-27T00:22:08.060Z,68.10
2022-07-27T00:24:36.192Z,67.90
2022-07-27T00:27:04.430Z,68.00
2022-07-27T00:29:32.577Z,68.00
2022-07-27T00:32:00.725Z,67.90
2022-07-27T00:34:30.239Z,68.90
2022-07-27T00:36:58.349Z,68.00
2022-07-27T00:39:26.495Z,68.00
2022-07-27T00:41:54.654Z,67.80
2022-07-27T00:44:26.561Z,67.70
2022-07-27T00:46:54.754Z,67.60
2022-07-27T00:49:23.029Z,67.70
2022-07-27T00:51:52.706Z,67.80
2022-07-27T00:54:21.752Z,67.70
2022-07-27T00:56:50.091Z,67.80
2022-07-27T00:59:18.272Z,67.60
2022-07-27T01:01:46.658Z,67.60
2022-07-27T01:04:14.825Z,67.70
2022-07-27T01:06:43.011Z,67.50
2022-07-27T01:09:30.050Z,67.50
2022-07-27T01:12:00.650Z,67.50
2022-07-27T01:14:28.786Z,67.50
2022-07-27T01:16:57.083Z,67.30
2022-07-27T01:19:25.218Z,67.30
2022-07-27T01:21:54.698Z,67.50
2022-07-27T01:24:22.802Z,67.30
2022-07-27T01:26:51.016Z,67.30
2022-07-27T01:29:19.192Z,67.30
2022-07-27T01:31:47.386Z,67.10
2022-07-27T01:34:15.543Z,67.10
2022-07-27T01:36:45.796Z,67.00
2022-07-27T01:39:15.692Z,67.10
2022-07-27T01:41:43.982Z,67.10
2022-07-27T01:44:12.145Z,67.00
2022-07-27T01:46:40.488Z,66.80
2022-07-27T01:49:08.950Z,66.90
2022-07-27T01:51:37.563Z,66.80
2022-07-27T01:54:05.964Z,66.70
2022-07-27T01:56:35.463Z,66.70
2022-07-27T01:59:03.760Z,66.70
2022-07-27T02:01:31.946Z,66.40
2022-07-27T02:04:00.135Z,66.60
2022-07-27T02:06:28.302Z,66.40
2022-07-27T02:08:56.403Z,66.40
2022-07-27T02:11:42.036Z,67.40
2022-07-27T02:14:11.611Z,66.30
2022-07-27T02:16:39.826Z,66.30
2022-07-27T02:19:08.893Z,66.20
2022-07-27T02:21:39.168Z,66.20
2022-07-27T02:24:08.025Z,66.30
2022-07-27T02:26:36.156Z,67.30
2022-07-27T02:29:05.294Z,66.20
2022-07-27T02:31:34.825Z,66.30
2022-07-27T02:34:02.954Z,66.30
2022-07-27T02:36:31.162Z,66.30
2022-07-27T02:38:59.535Z,66.30
2022-07-27T02:41:27.683Z,66.30
2022-07-27T02:43:55.789Z,66.10
2022-07-27T02:46:24.067Z,66.20
2022-07-27T02:48:53.789Z,66.10
2022-07-27T02:51:21.954Z,66.10
2022-07-27T02:53:50.186Z,66.10
2022-07-27T02:56:18.295Z,66.10
2022-07-27T02:58:47.009Z,66.00
2022-07-27T03:01:16.088Z,66.00
2022-07-27T03:03:44.285Z,66.00
2022-07-27T03:06:13.952Z,65.90
2022-07-27T03:08:42.321Z,65.90
2022-07-27T03:11:10.401Z,65.80
2022-07-27T03:13:38.532Z,65.80
2022-07-27T03:16:07.253Z,65.80
2022-07-27T03:18:35.571Z,65.70
2022-07-27T03:21:03.803Z,65.50
2022-07-27T03:23:33.290Z,65.30
2022-07-27T03:26:01.419Z,65.30
2022-07-27T03:28:29.714Z,65.20
2022-07-27T03:30:57.887Z,65.20
2022-07-27T03:33:26.069Z,66.00
2022-07-27T03:35:54.148Z,65.00
2022-07-27T03:38:23.004Z,64.90
2022-07-27T03:40:52.476Z,64.80
2022-07-27T03:43:20.619Z,64.80
2022-07-27T03:45:48.978Z,64.70
2022-07-27T03:48:17.132Z,64.60
2022-07-27T03:50:45.255Z,64.60
2022-07-27T03:53:13.315Z,64.60
2022-07-27T03:55:41.527Z,64.50
2022-07-27T03:58:10.991Z,64.50
2022-07-27T04:00:39.133Z,64.50
2022-07-27T04:03:07.484Z,64.30
2022-07-27T04:05:36.161Z,64.40
2022-07-27T04:08:04.272Z,64.40
2022-07-27T04:10:32.439Z,64.50
2022-07-27T04:13:00.581Z,64.50
2022-07-27T04:15:30.684Z,64.40
2022-07-27T04:17:58.860Z,64.50
2022-07-27T04:20:27.736Z,64.30
2022-07-27T04:22:56.018Z,65.20
2022-07-27T04:25:24.121Z,64.20
2022-07-27T04:27:54.492Z,64.10
2022-07-27T04:30:23.046Z,64.00
2022-07-27T04:32:52.742Z,64.00
2022-07-27T04:35:25.917Z,64.00
2022-07-27T04:37:59.035Z,64.00
2022-07-27T04:40:32.290Z,63.90
2022-07-27T04:43:00.606Z,63.90
2022-07-27T04:45:28.741Z,63.90
2022-07-27T04:47:58.454Z,63.70
2022-07-27T04:50:26.604Z,63.70
2022-07-27T04:52:59.395Z,63.70
2022-07-27T04:55:27.584Z,63.60
2022-07-27T04:57:55.792Z,63.60
2022-07-27T05:00:24.028Z,63.60
2022-07-27T05:02:52.235Z,63.60
2022-07-27T05:05:21.967Z,63.50
2022-07-27T05:07:50.097Z,63.50
2022-07-27T05:10:20.479Z,63.30
2022-07-27T05:12:49.347Z,63.30
2022-07-27T05:15:17.520Z,63.40
2022-07-27T05:17:45.678Z,63.50
2022-07-27T05:20:14.039Z,63.30
2022-07-27T05:22:43.524Z,63.40
2022-07-27T05:25:11.868Z,64.20
2022-07-27T05:27:53.911Z,63.00
2022-07-27T05:30:23.529Z,62.80
2022-07-27T05:32:51.638Z,62.60
2022-07-27T05:35:20.344Z,62.40
2022-07-27T05:37:49.853Z,62.30
2022-07-27T05:40:17.996Z,62.30
2022-07-27T05:42:46.111Z,62.30
2022-07-27T05:45:14.322Z,62.20
2022-07-27T05:47:42.965Z,62.20
2022-07-27T05:50:11.367Z,62.10
2022-07-27T05:52:39.518Z,62.00
2022-07-27T05:55:09.952Z,61.80
2022-07-27T05:57:38.192Z,62.00
2022-07-27T06:00:07.716Z,61.80
2022-07-27T06:02:41.881Z,61.70
2022-07-27T06:05:15.232Z,61.70
2022-07-27T06:08:03.594Z,61.60
2022-07-27T06:10:34.154Z,61.70
2022-07-27T06:13:02.537Z,61.70
2022-07-27T06:15:30.690Z,61.90
2022-07-27T06:17:58.765Z,62.20
2022-07-27T06:20:27.240Z,62.40
2022-07-27T06:22:56.421Z,62.80
2022-07-27T06:25:34.132Z,62.70
2022-07-27T06:28:05.572Z,63.10
2022-07-27T06:30:33.747Z,62.90
2022-07-27T06:33:04.235Z,62.70
2022-07-27T06:35:33.086Z,62.20
2022-07-27T06:38:02.321Z,62.50
2022-07-27T06:40:32.182Z,62.80
2022-07-27T06:43:00.382Z,62.80
2022-07-27T06:45:30.173Z,63.00
2022-07-27T06:47:58.284Z,63.10
2022-07-27T06:50:27.009Z,63.20
2022-07-27T06:52:55.163Z,63.30
2022-07-27T06:55:23.426Z,63.20
2022-07-27T06:57:51.611Z,63.20
2022-07-27T07:00:19.780Z,63.30
2022-07-27T07:02:58.688Z,63.30
2022-07-27T07:05:26.817Z,63.30
2022-07-27T07:07:55.334Z,63.50
2022-07-27T07:10:23.852Z,63.40
2022-07-27T07:12:55.593Z,63.20
2022-07-27T07:15:24.839Z,63.30
2022-07-27T07:17:53.180Z,63.40
2022-07-27T07:20:23.034Z,63.40
2022-07-27T07:22:51.437Z,63.10
2022-07-27T07:25:19.587Z,64.00
2022-07-27T07:27:47.750Z,63.90
2022-07-27T07:30:16.082Z,63.20
2022-07-27T07:32:45.823Z,62.50
2022-07-27T07:35:25.575Z,62.40
2022-07-27T07:37:55.190Z,62.00
2022-07-27T07:43:12.177Z,61.10
2022-07-27T07:45:51.017Z,60.90
2022-07-27T07:48:20.991Z,60.80
2022-07-27T07:50:52.474Z,60.90
2022-07-27T07:53:23.674Z,60.90
2022-07-27T07:55:52.096Z,60.60
2022-07-27T07:58:20.324Z,60.50
2022-07-27T08:00:48.542Z,60.70
2022-07-27T08:03:16.784Z,60.40
2022-07-27T08:05:44.896Z,60.40
2022-07-27T08:08:13.135Z,60.50
2022-07-27T08:10:42.677Z,59.90
2022-07-27T08:13:10.821Z,60.10
2022-07-27T08:15:38.976Z,59.80
2022-07-27T08:18:07.332Z,58.80
2022-07-27T08:20:35.529Z,59.20
2022-07-27T08:23:03.819Z,58.90
2022-07-27T08:25:32.288Z,58.90
2022-07-27T08:28:02.891Z,59.00
2022-07-27T08:30:32.376Z,58.70
2022-07-27T08:33:02.089Z,58.60
2022-07-27T08:35:30.722Z,58.40
2022-07-27T08:37:58.864Z,58.40
2022-07-27T08:40:44.952Z,58.40
2022-07-27T08:43:23.833Z,58.30
2022-07-27T08:45:54.767Z,58.50
2022-07-27T08:48:23.130Z,58.20
2022-07-27T08:50:51.346Z,58.00
2022-07-27T08:53:19.547Z,58.20
2022-07-27T08:55:48.448Z,58.00
2022-07-27T08:58:18.459Z,57.60
2022-07-27T09:00:48.092Z,57.80
2022-07-27T09:03:20.158Z,57.80
2022-07-27T09:05:49.904Z,57.30
2022-07-27T09:08:21.637Z,57.50
2022-07-27T09:10:50.472Z,57.20
2022-07-27T09:13:24.739Z,57.00
2022-07-27T09:18:42.434Z,56.60
2022-07-27T09:21:11.958Z,57.40
2022-07-27T09:23:40.373Z,57.40
2022-07-27T09:26:30.290Z,57.30
2022-07-27T09:29:02.159Z,57.60
2022-07-27T09:31:30.433Z,57.30
2022-07-27T09:34:00.419Z,57.10
2022-07-27T09:36:29.251Z,56.50
2022-07-27T09:39:02.597Z,55.80
2022-07-27T09:41:40.452Z,55.70
2022-07-27T09:46:58.583Z,55.90
2022-07-27T09:49:31.745Z,56.10
2022-07-27T09:52:01.952Z,56.10
2022-07-27T09:54:43.340Z,56.00
2022-07-27T09:57:11.741Z,56.60
2022-07-27T09:59:41.321Z,56.50
2022-07-27T10:02:09.669Z,56.40
2022-07-27T10:04:37.962Z,56.00
2022-07-27T10:07:09.503Z,55.50
2022-07-27T10:09:41.352Z,55.80
2022-07-27T10:12:10.325Z,55.50
2022-07-27T10:14:39.901Z,55.80
2022-07-27T10:17:08.092Z,55.50
2022-07-27T10:19:40.661Z,55.70
2022-07-27T10:22:08.811Z,55.80
2022-07-27T10:24:37.533Z,55.60
2022-07-27T10:27:21.095Z,56.40
2022-07-27T10:29:50.859Z,56.30
2022-07-27T10:32:24.822Z,56.20
2022-07-27T10:34:52.979Z,56.20
2022-07-27T10:37:26.145Z,56.00
2022-07-27T10:40:16.021Z,56.00
2022-07-27T10:42:44.281Z,56.50
2022-07-27T10:45:14.216Z,56.40
2022-07-27T10:47:44.641Z,56.50
2022-07-27T10:50:27.090Z,57.30
2022-07-27T10:52:56.184Z,56.20
2022-07-27T10:55:49.259Z,56.30
2022-07-27T10:59:00.143Z,56.30
2022-07-27T11:01:29.651Z,56.20
2022-07-27T11:03:57.794Z,56.10
2022-07-27T11:06:41.947Z,56.10
2022-07-27T11:10:02.391Z,56.20
2022-07-27T11:12:11.574Z,56.40
2022-07-27T11:14:49.372Z,56.20
2022-07-27T11:20:09.058Z,56.10
2022-07-27T11:25:26.307Z,56.00
2022-07-27T11:27:54.473Z,56.00
2022-07-27T11:30:23.836Z,56.20
2022-07-27T11:32:53.661Z,56.30
2022-07-27T11:35:21.922Z,56.20
2022-07-27T11:38:03.293Z,56.30
2022-07-27T11:43:36.829Z,56.50
2022-07-27T11:46:15.509Z,56.60
2022-07-27T11:49:06.788Z,56.60
2022-07-27T11:51:43.616Z,56.60
2022-07-27T11:54:15.083Z,56.40
2022-07-27T11:56:46.485Z,56.40
2022-07-27T11:59:17.371Z,56.40
2022-07-27T12:01:47.886Z,56.60
2022-07-27T12:04:20.122Z,56.60
2022-07-27T12:06:55.771Z,56.60
2022-07-27T12:09:24.078Z,56.30
2022-07-27T12:12:02.616Z,56.20
2022-07-27T12:14:36.362Z,56.20
2022-07-27T12:17:15.315Z,56.00
2022-07-27T12:19:50.462Z,56.10
2022-07-27T12:22:24.505Z,56.00
2022-07-27T12:24:52.726Z,55.90
2022-07-27T12:27:21.939Z,55.80
2022-07-27T12:30:15.407Z,55.90
2022-07-27T12:32:44.453Z,56.00
2022-07-27T12:35:22.775Z,55.90
2022-07-27T12:37:57.720Z,55.90
2022-07-27T12:40:27.270Z,55.90
2022-07-27T12:42:59.849Z,55.70
2022-07-27T12:45:31.873Z,55.60
2022-07-27T12:48:07.654Z,55.90
2022-07-27T12:50:37.265Z,55.80
2022-07-27T12:53:05.467Z,55.90
2022-07-27T12:55:34.506Z,55.90
2022-07-27T12:58:02.637Z,55.80
2022-07-27T13:00:34.068Z,55.70
2022-07-27T13:03:03.051Z,55.60
2022-07-27T13:05:31.570Z,55.60
2022-07-27T13:08:01.089Z,55.50
2022-07-27T13:10:29.280Z,55.60
2022-07-27T13:12:57.538Z,55.80
2022-07-27T13:15:25.822Z,55.90
2022-07-27T13:17:53.997Z,55.70
2022-07-27T13:20:22.262Z,55.50
2022-07-27T13:22:50.468Z,55.50
2022-07-27T13:25:20.041Z,55.70
2022-07-27T13:27:48.634Z,55.90
2022-07-27T13:30:17.542Z,56.10
2022-07-27T13:32:46.674Z,56.00
2022-07-27T13:35:16.649Z,56.10
2022-07-27T13:37:45.273Z,56.20
2022-07-27T13:40:13.695Z,56.20
2022-07-27T13:42:56.333Z,56.10
2022-07-27T13:45:24.664Z,56.10
2022-07-27T13:47:53.865Z,56.10
2022-07-27T13:50:22.271Z,56.00
2022-07-27T13:52:50.545Z,56.00
2022-07-27T13:55:19.047Z,55.90
2022-07-27T13:57:47.754Z,55.80
2022-07-27T14:00:17.825Z,55.60
2022-07-27T14:02:46.162Z,55.60
2022-07-27T14:05:14.829Z,55.30
2022-07-27T14:07:44.440Z,55.40
2022-07-27T14:10:30.866Z,55.40
2022-07-27T14:13:07.259Z,55.40
2022-07-27T14:15:53.381Z,55.20
2022-07-27T14:18:25.013Z,55.20
2022-07-27T14:20:53.419Z,55.10
2022-07-27T14:23:21.536Z,55.00
2022-07-27T14:25:49.816Z,55.00
2022-07-27T14:28:18.013Z,55.00
2022-07-27T14:30:47.723Z,54.90
2022-07-27T14:33:16.238Z,54.90
2022-07-27T14:35:44.591Z,54.90
2022-07-27T14:38:12.880Z,54.80
2022-07-27T14:40:41.315Z,54.60
2022-07-27T14:43:09.887Z,54.50
2022-07-27T14:45:44.468Z,54.40
2022-07-27T14:48:25.049Z,54.40
2022-07-27T14:51:01.191Z,54.30
2022-07-27T14:53:29.439Z,54.30
2022-07-27T14:55:57.599Z,55.70
2022-07-27T14:58:25.796Z,57.00
2022-07-27T15:00:54.435Z,56.70
2022-07-27T15:03:24.171Z,56.50
2022-07-27T15:05:52.322Z,56.20
2022-07-27T15:08:20.574Z,55.90
2022-07-27T15:10:49.103Z,55.50
2022-07-27T15:13:17.805Z,55.40
2022-07-27T15:15:48.766Z,55.50
2022-07-27T15:18:19.352Z,55.50
2022-07-27T15:20:49.079Z,55.40
2022-07-27T15:23:17.427Z,55.40
2022-07-27T15:25:45.729Z,55.30
2022-07-27T15:28:13.980Z,55.20
2022-07-27T15:30:42.162Z,55.20
2022-07-27T15:33:10.442Z,56.00
2022-07-27T15:35:40.658Z,56.60
2022-07-27T15:38:10.473Z,56.80
2022-07-27T15:40:38.868Z,57.00
2022-07-27T15:43:08.250Z,57.00
2022-07-27T15:45:38.670Z,57.10
2022-07-27T15:48:08.392Z,57.30
2022-07-27T15:50:36.609Z,57.20
2022-07-27T15:53:04.788Z,57.50
2022-07-27T15:55:34.280Z,57.20
2022-07-27T15:58:03.442Z,56.90
2022-07-27T16:00:36.897Z,56.80
2022-07-27T16:03:07.027Z,56.90
2022-07-27T16:05:35.667Z,57.00
2022-07-27T16:08:03.786Z,57.00
2022-07-27T16:10:33.416Z,56.90
2022-07-27T16:13:01.605Z,56.80
2022-07-27T16:15:43.965Z,56.40
2022-07-27T16:18:14.232Z,56.60
2022-07-27T16:20:42.489Z,57.00
2022-07-27T16:23:17.696Z,56.40
2022-07-27T16:26:08.094Z,56.60
2022-07-27T16:28:38.703Z,56.40
2022-07-27T16:31:07.893Z,55.90
2022-07-27T16:33:36.282Z,55.40
2022-07-27T16:36:05.479Z,55.40
2022-07-27T16:38:33.828Z,55.20
2022-07-27T16:41:06.803Z,55.00
2022-07-27T16:43:38.693Z,54.90
2022-07-27T16:46:08.629Z,54.60
2022-07-27T16:48:42.209Z,54.70
2022-07-27T16:51:12.889Z,54.70
2022-07-27T16:53:42.305Z,54.90
2022-07-27T16:56:12.338Z,54.50
2022-07-27T16:58:40.630Z,54.00
2022-07-27T17:01:09.082Z,54.40
2022-07-27T17:03:37.592Z,54.70
2022-07-27T17:06:07.183Z,54.40
2022-07-27T17:08:36.370Z,54.70
2022-07-27T17:11:06.110Z,54.30
2022-07-27T17:13:35.998Z,54.60
2022-07-27T17:16:04.599Z,54.70
2022-07-27T17:18:38.909Z,54.60
2022-07-27T17:21:09.377Z,55.10
2022-07-27T17:23:39.738Z,55.00
2022-07-27T17:26:09.092Z,54.60
2022-07-27T17:28:40.307Z,54.90
2022-07-27T17:31:09.917Z,54.80
2022-07-27T17:33:38.322Z,54.60
2022-07-27T17:36:15.044Z,53.80
2022-07-27T17:38:44.215Z,53.60
2022-07-27T17:41:12.675Z,53.60
2022-07-27T17:43:42.337Z,53.50
2022-07-27T17:46:11.409Z,53.40
2022-07-27T17:48:40.138Z,53.60
2022-07-27T17:51:08.812Z,53.70
2022-07-27T17:53:36.948Z,53.70
2022-07-27T17:56:05.576Z,54.00
2022-07-27T17:58:33.808Z,54.00
2022-07-27T18:01:03.306Z,54.20
2022-07-27T18:03:33.459Z,54.10
2022-07-27T18:06:01.826Z,54.40
2022-07-27T18:08:30.044Z,54.30
2022-07-27T18:10:58.832Z,54.30
2022-07-27T18:13:39.618Z,54.30
2022-07-27T18:16:12.262Z,54.30
2022-07-27T18:18:41.259Z,54.30
2022-07-27T18:21:10.563Z,54.40
2022-07-27T18:23:38.882Z,54.30
2022-07-27T18:26:07.304Z,54.40
2022-07-27T18:28:39.491Z,54.30
2022-07-27T18:31:09.733Z,54.40
2022-07-27T18:33:45.646Z,54.70
2022-07-27T18:36:14.074Z,55.00
2022-07-27T18:38:42.488Z,54.80
2022-07-27T18:41:10.717Z,55.20
2022-07-27T18:43:39.106Z,55.90
2022-07-27T18:46:07.812Z,56.40
2022-07-27T18:48:36.490Z,56.70
2022-07-27T18:51:06.332Z,57.00
2022-07-27T18:53:35.289Z,57.20
2022-07-27T18:56:03.448Z,57.20
2022-07-27T18:58:31.609Z,57.50
2022-07-27T19:01:00.249Z,57.50
2022-07-27T19:03:28.860Z,57.50
2022-07-27T19:05:57.083Z,57.60
2022-07-27T19:08:26.570Z,57.50
2022-07-27T19:10:54.742Z,57.50
2022-07-27T19:13:23.013Z,57.50
2022-07-27T19:15:51.212Z,57.50
2022-07-27T19:18:19.458Z,57.70
2022-07-27T19:20:47.991Z,57.60
2022-07-27T19:23:16.199Z,57.60
2022-07-27T19:25:46.218Z,57.50
2022-07-27T19:28:16.520Z,57.60
2022-07-27T19:30:45.362Z,57.60
2022-07-27T19:33:13.802Z,57.70
2022-07-27T19:35:42.036Z,57.40
2022-07-27T19:38:10.673Z,57.40
2022-07-27T19:40:44.727Z,57.50
2022-07-27T19:43:15.498Z,57.40
2022-07-27T19:45:43.967Z,57.40
2022-07-27T19:48:13.443Z,57.30
2022-07-27T19:50:41.715Z,57.20
2022-07-27T19:53:10.100Z,57.00
2022-07-27T19:55:39.470Z,56.90
2022-07-27T19:58:07.720Z,56.80
2022-07-27T20:00:37.345Z,56.60
2022-07-27T20:03:05.887Z,56.30
2022-07-27T20:05:34.305Z,56.50
2022-07-27T20:08:03.177Z,56.30
2022-07-27T20:10:31.741Z,56.20
2022-07-27T20:13:00.080Z,56.00
2022-07-27T20:15:28.416Z,55.90
2022-07-27T20:17:58.262Z,55.80
2022-07-27T20:20:26.548Z,55.70
2022-07-27T20:22:54.694Z,55.70
2022-07-27T20:25:22.928Z,55.60
2022-07-27T20:27:51.228Z,55.50
2022-07-27T20:30:20.111Z,55.30
2022-07-27T20:32:48.520Z,55.20
2022-07-27T20:35:18.608Z,55.20
2022-07-27T20:37:47.391Z,55.10
2022-07-27T20:40:15.865Z,55.10
2022-07-27T20:42:44.298Z,54.90
2022-07-27T20:45:14.516Z,54.90
2022-07-27T20:47:43.126Z,54.80
2022-07-27T20:50:12.932Z,55.20
2022-07-27T20:52:42.593Z,54.90
2022-07-27T20:55:11.036Z,55.20
2022-07-27T20:57:39.398Z,54.80
2022-07-27T21:00:08.653Z,54.90
2022-07-27T21:02:37.009Z,55.20
2022-07-27T21:05:05.897Z,54.80
2022-07-27T21:07:34.527Z,54.20
2022-07-27T21:10:04.560Z,54.90
2022-07-27T21:12:32.720Z,55.80
2022-07-27T21:15:01.125Z,56.40
2022-07-27T21:17:29.329Z,56.90
2022-07-27T21:19:57.440Z,57.40
2022-07-27T21:22:25.643Z,57.40
2022-07-27T21:24:53.954Z,57.90
2022-07-27T21:27:23.889Z,57.80
2022-07-27T21:29:52.790Z,57.90
2022-07-27T21:32:20.961Z,58.00
2022-07-27T21:34:49.179Z,58.00
2022-07-27T21:37:17.454Z,57.90
2022-07-27T21:39:46.186Z,57.90
2022-07-27T21:42:14.577Z,57.70
2022-07-27T21:44:44.101Z,57.50
2022-07-27T21:47:14.194Z,57.60
2022-07-27T21:49:42.889Z,57.60
2022-07-27T21:52:11.288Z,57.50
2022-07-27T21:54:39.832Z,57.50
2022-07-27T21:57:08.165Z,57.60
2022-07-27T21:59:36.352Z,57.50
2022-07-27T22:02:05.868Z,57.50
2022-07-27T22:04:34.134Z,57.50
2022-07-27T22:07:02.344Z,57.50
2022-07-27T22:09:30.604Z,57.40
2022-07-27T22:11:58.754Z,57.40
2022-07-27T22:14:26.905Z,57.40
2022-07-27T22:16:55.142Z,57.50
2022-07-27T22:19:24.746Z,57.40
2022-07-27T22:21:52.935Z,57.30
2022-07-27T22:24:21.064Z,57.40
2022-07-27T22:26:49.914Z,57.40
2022-07-27T22:29:18.039Z,57.40
2022-07-27T22:31:46.248Z,57.40
2022-07-27T22:34:14.815Z,57.30
2022-07-27T22:36:45.003Z,57.00
2022-07-27T22:39:13.236Z,57.00
2022-07-27T22:41:41.480Z,56.90
2022-07-27T22:44:09.693Z,56.90
2022-07-27T22:46:37.959Z,56.90
2022-07-27T22:49:06.131Z,56.70
2022-07-27T22:51:48.798Z,56.70
2022-07-27T22:54:19.664Z,56.60
2022-07-27T22:56:47.805Z,56.50
2022-07-27T22:59:15.974Z,56.50
2022-07-27T23:01:47.032Z,56.40
2022-07-27T23:04:16.695Z,56.30
2022-07-27T23:06:45.334Z,56.30
2022-07-27T23:09:13.464Z,56.30
2022-07-27T23:11:42.983Z,56.10
2022-07-27T23:14:11.592Z,56.10
2022-07-27T23:16:40.022Z,56.10
2022-07-27T23:19:08.182Z,56.10
2022-07-27T23:21:37.449Z,56.20
2022-07-27T23:24:05.876Z,56.00
2022-07-27T23:26:34.043Z,56.10
2022-07-27T23:29:03.721Z,56.00
2022-07-27T23:31:31.951Z,56.00
2022-07-27T23:34:00.470Z,56.00
2022-07-27T23:36:28.586Z,55.90
2022-07-27T23:38:56.725Z,55.80
2022-07-27T23:41:24.854Z,55.70
2022-07-27T23:43:52.951Z,55.70
2022-07-27T23:46:22.508Z,55.60
2022-07-27T23:48:50.725Z,55.60
2022-07-27T23:51:19.112Z,55.60
2022-07-27T23:53:47.579Z,55.70
2022-07-27T23:56:15.838Z,55.60
2022-07-27T23:58:44.904Z,55.50
